Singapore, Singapore

3:20 AM SGT on September 03, 2014 (GMT +0800)
Changi | Change Station
CLOSE
Current Station
Airport
Location: Singapore,
Elevation: 52 ft
Nearby Weather Stations

Elev 52 ft 1.37 °N, 103.98 °E | Updated 20 minutes ago

Mostly Cloudy
Mostly Cloudy
81 °F
Feels Like 87 °F
N
1
Wind Variable Wind from Variable

Today
High -- | Low -- °F
--% Chance of Precip.
Yesterday
High -- | Low -- °F
Precip. -- in
6:59 AM 7:07 PM
First Quarter, 54% visible
Pressure 29.86 in
Visibility 6.2 miles
Clouds Few 1500 ft
Few 1700 ft
Mostly Cloudy 28000 ft
Heat Index 87 °F
Dew Point 77 °F
Humidity 89%
Rainfall 0.00 in
Snow Depth Not available.
UV 0 out of 12
Pollen Not available.
Air Quality Not available.
Flu Activity Not available.
METAR WSSS 021900Z VRB01KT 9999 FEW015 FEW017TCU BKN280 27/25 Q1011 NOSIG

More Conditions Fewer Conditions

Pressure 29.86 in
Visibility 6.2 miles
Clouds Few 1500 ft
Few 1700 ft
Mostly Cloudy 28000 ft
Heat Index 87 °F
Dew Point 77 °F
Humidity 89%
Rainfall 0.00 in
Snow Depth Not available.
UV 0 out of 12
Pollen Not available.
Air Quality Not available.
Flu Activity Not available.
METAR WSSS 021900Z VRB01KT 9999 FEW015 FEW017TCU BKN280 27/25 Q1011 NOSIG

More Conditions Fewer Conditions

10-Day Weather Forecast

Almanac

Astronomy

Sep. 03, 2014 Rise Set
Actual Time 6:59 AM SGT 7:07 PM SGT
Civil Twilight 6:38 AM SGT 7:28 PM SGT
Nautical Twilight 6:14 AM SGT 7:52 PM SGT
Astronomical Twilight 5:50 AM SGT 8:16 PM SGT
Moon 1:37 PM SGT (9/3) 1:04 AM SGT (9/3)
Length of Visible Light 12h 49m
Length of Day
12h 08m
Tomorrow will be 0m 5s shorter.
First Quarter, 54% of the Moon is Illuminated
Sep 2
First Quarter
Sep 8
Full
Sep 15
Last Quarter
Sep 24
New
Oct 1
First Quarter

Yesterday's Extremes

Country Highs Country Lows

Community

WunderPhotos

Upload Photos

1,749,748 photos uploaded!

WunderBlogs® & News

By Dr. Jeff Masters
Director of Meteorology, Weather Underground
By Kari Strenfel
Meteorologist, Weather Underground
By Christopher C. Burt
Weather Historian, Weather Underground
September 2, 2014
September 2, 2014
September 2, 2014

Nearby

Snow Depth

Not available.

Earthquake Activity

City Distance Mag. Time & Date
No recent earthquake activity has been reported nearby.
Minimum magnitude displayed is 2.5.

Coastal Water Temperatures

Place Temperature
No Stations Reporting

Nearby Weather Stations